createdAt,value
2018-09-28T00:00:50.064Z,11.24
2018-09-28T00:01:50.074Z,11.15
2018-09-28T00:03:42.991Z,11.07
2018-09-28T00:04:42.990Z,11.09
2018-09-28T00:06:35.888Z,11.11
2018-09-28T00:07:35.907Z,11.04
2018-09-28T00:09:28.850Z,11.03
2018-09-28T00:10:28.825Z,11.06
2018-09-28T00:12:21.725Z,10.99
2018-09-28T00:13:21.741Z,11.00
2018-09-28T00:15:14.647Z,10.97
2018-09-28T00:16:14.656Z,10.99
2018-09-28T00:18:07.555Z,10.92
2018-09-28T00:19:07.571Z,10.92
2018-09-28T00:21:00.552Z,10.92
2018-09-28T00:22:00.492Z,10.81
2018-09-28T00:23:53.389Z,10.74
2018-09-28T00:24:53.410Z,10.76
2018-09-28T00:26:46.317Z,10.79
2018-09-28T00:27:46.324Z,10.71
2018-09-28T00:29:39.236Z,10.82
2018-09-28T00:30:39.244Z,10.73
2018-09-28T00:32:32.149Z,10.67
2018-09-28T00:33:32.166Z,10.60
2018-09-28T00:35:25.072Z,10.61
2018-09-28T00:36:25.078Z,10.60
2018-09-28T00:38:17.987Z,10.67
2018-09-28T00:39:17.999Z,10.55
2018-09-28T00:41:10.942Z,10.63
2018-09-28T00:42:10.918Z,10.66
2018-09-28T00:44:03.977Z,10.66
2018-09-28T00:45:03.995Z,10.60
2018-09-28T00:46:56.898Z,10.63
2018-09-28T00:47:56.908Z,10.64
2018-09-28T00:49:49.803Z,10.63
2018-09-28T00:50:49.819Z,10.55
2018-09-28T00:52:42.734Z,10.45
2018-09-28T00:53:42.740Z,10.38
2018-09-28T00:55:35.647Z,10.42
2018-09-28T00:56:35.655Z,10.34
2018-09-28T00:58:29.549Z,10.26
2018-09-28T00:59:29.567Z,10.26
2018-09-28T01:01:22.471Z,10.23
2018-09-28T01:02:22.480Z,10.22
2018-09-28T01:04:15.377Z,10.22
2018-09-28T01:05:15.394Z,10.23
2018-09-28T01:07:08.328Z,10.08
2018-09-28T01:08:08.311Z,10.05
2018-09-28T01:10:01.209Z,10.07
2018-09-28T01:11:01.227Z,10.01
2018-09-28T01:12:54.147Z,9.96
2018-09-28T01:13:54.149Z,9.86
2018-09-28T01:15:47.061Z,9.97
2018-09-28T01:16:47.065Z,9.96
2018-09-28T01:18:40.158Z,9.93
2018-09-28T01:19:40.181Z,9.89
2018-09-28T01:21:33.105Z,9.86
2018-09-28T01:22:33.094Z,9.89
2018-09-28T01:24:26.011Z,9.78
2018-09-28T01:25:26.013Z,9.79
2018-09-28T01:27:18.917Z,9.83
2018-09-28T01:28:18.920Z,9.81
2018-09-28T01:30:11.822Z,9.84
2018-09-28T01:31:11.841Z,9.84
2018-09-28T01:33:04.754Z,9.86
2018-09-28T01:34:04.751Z,9.78
2018-09-28T01:35:57.663Z,9.74
2018-09-28T01:36:57.669Z,9.81
2018-09-28T01:38:50.569Z,9.79
2018-09-28T01:39:50.583Z,9.78
2018-09-28T01:41:43.492Z,9.79
2018-09-28T01:42:43.498Z,9.79
2018-09-28T01:44:36.397Z,9.87
2018-09-28T01:45:36.413Z,9.81
2018-09-28T01:47:29.318Z,9.83
2018-09-28T01:48:29.325Z,9.75
2018-09-28T01:50:22.224Z,9.79
2018-09-28T01:51:22.241Z,9.75
2018-09-28T01:53:15.145Z,9.75
2018-09-28T01:54:15.156Z,9.78
2018-09-28T01:56:08.051Z,9.74
2018-09-28T01:57:08.068Z,9.74
2018-09-28T01:59:01.018Z,9.72
2018-09-28T02:00:00.983Z,9.69
2018-09-28T02:01:53.881Z,9.75
2018-09-28T02:02:53.896Z,9.75
2018-09-28T02:04:46.805Z,9.79
2018-09-28T02:05:46.810Z,9.79
2018-09-28T02:07:39.715Z,9.83
2018-09-28T02:08:39.725Z,9.75
2018-09-28T02:10:32.626Z,9.81
2018-09-28T02:11:32.641Z,9.79
2018-09-28T02:13:25.548Z,9.89
2018-09-28T02:14:25.556Z,9.90
2018-09-28T02:16:18.458Z,9.93
2018-09-28T02:17:18.478Z,9.94
2018-09-28T02:19:11.386Z,9.96
2018-09-28T02:20:11.396Z,10.02
2018-09-28T02:22:04.289Z,10.02
2018-09-28T02:23:04.309Z,10.11
2018-09-28T02:24:57.217Z,10.05
2018-09-28T02:25:57.226Z,10.04
2018-09-28T02:27:50.148Z,10.22
2018-09-28T02:28:50.138Z,10.27
2018-09-28T02:30:43.056Z,10.41
2018-09-28T02:31:43.056Z,10.38
2018-09-28T02:33:35.983Z,10.51
2018-09-28T02:34:35.974Z,10.56
2018-09-28T02:36:28.899Z,10.59
2018-09-28T02:37:28.889Z,10.63
2018-09-28T02:39:21.802Z,10.68
2018-09-28T02:40:21.809Z,10.89
2018-09-28T02:42:14.714Z,10.92
2018-09-28T02:43:14.727Z,11.02
2018-09-28T02:45:07.810Z,11.17
2018-09-28T02:46:07.819Z,11.11
2018-09-28T02:48:00.722Z,11.28
2018-09-28T02:49:00.735Z,11.33
2018-09-28T02:50:53.650Z,11.46
2018-09-28T02:51:53.659Z,11.39
2018-09-28T02:53:46.584Z,11.52
2018-09-28T02:54:46.589Z,11.44
2018-09-28T02:56:39.501Z,11.46
2018-09-28T02:57:39.520Z,11.49
2018-09-28T02:59:32.437Z,11.49
2018-09-28T03:00:32.447Z,11.54
2018-09-28T03:02:25.349Z,11.55
2018-09-28T03:03:25.357Z,11.46
2018-09-28T03:05:18.262Z,11.44
2018-09-28T03:06:18.301Z,11.46
2018-09-28T03:08:11.171Z,11.47
2018-09-28T03:09:11.194Z,11.46
2018-09-28T03:11:04.098Z,11.39
2018-09-28T03:12:04.107Z,11.40
2018-09-28T03:13:57.023Z,11.44
2018-09-28T03:14:57.023Z,11.43
2018-09-28T03:16:49.919Z,11.46
2018-09-28T03:17:49.937Z,11.55
2018-09-28T03:19:42.848Z,11.60
2018-09-28T03:20:42.858Z,11.57
2018-09-28T03:22:35.763Z,11.73
2018-09-28T03:23:35.781Z,11.75
2018-09-28T03:25:28.694Z,11.75
2018-09-28T03:26:28.709Z,11.73
2018-09-28T03:28:21.607Z,11.75
2018-09-28T03:29:21.626Z,11.73
2018-09-28T03:31:14.545Z,11.70
2018-09-28T03:32:14.555Z,11.70
2018-09-28T03:34:07.454Z,11.57
2018-09-28T03:35:07.471Z,11.70
2018-09-28T03:37:00.381Z,11.76
2018-09-28T03:38:00.390Z,11.73
2018-09-28T03:39:53.290Z,11.76
2018-09-28T03:40:53.311Z,11.90
2018-09-28T03:42:46.219Z,11.85
2018-09-28T03:43:46.229Z,12.01
2018-09-28T03:45:39.141Z,11.95
2018-09-28T03:46:39.155Z,12.01
2018-09-28T03:48:32.049Z,12.12
2018-09-28T03:49:32.067Z,12.17
2018-09-28T03:51:25.054Z,12.21
2018-09-28T03:52:24.988Z,12.27
2018-09-28T03:54:17.886Z,12.27
2018-09-28T03:55:17.902Z,12.23
2018-09-28T03:57:10.851Z,12.34
2018-09-28T03:58:10.819Z,12.29
2018-09-28T04:00:03.721Z,12.32
2018-09-28T04:01:03.740Z,12.32
2018-09-28T04:02:56.710Z,12.37
2018-09-28T04:03:56.661Z,12.31
2018-09-28T04:05:49.578Z,12.39
2018-09-28T04:06:49.581Z,12.37
2018-09-28T04:08:42.492Z,12.35
2018-09-28T04:09:42.507Z,12.45
2018-09-28T04:11:35.414Z,12.52
2018-09-28T04:12:35.426Z,12.47
2018-09-28T04:14:28.348Z,12.42
2018-09-28T04:15:28.345Z,12.49
2018-09-28T04:17:21.255Z,12.53
2018-09-28T04:18:21.267Z,12.62
2018-09-28T04:20:14.167Z,12.67
2018-09-28T04:21:14.183Z,12.60
2018-09-28T04:23:07.163Z,12.67
2018-09-28T04:24:07.103Z,12.67
2018-09-28T04:26:00.002Z,12.67
2018-09-28T04:27:00.025Z,12.64
2018-09-28T04:28:52.985Z,12.57
2018-09-28T04:29:52.941Z,12.64
2018-09-28T04:31:45.874Z,12.41
2018-09-28T04:32:45.861Z,12.42
2018-09-28T04:34:38.768Z,12.46
2018-09-28T04:35:38.782Z,12.42
2018-09-28T04:37:31.721Z,12.42
2018-09-28T04:38:31.702Z,12.56
2018-09-28T04:40:24.604Z,12.64
2018-09-28T04:41:24.617Z,12.62
2018-09-28T04:43:17.534Z,12.65
2018-09-28T04:44:17.542Z,12.67
2018-09-28T04:46:10.443Z,12.77
2018-09-28T04:47:10.460Z,12.77
2018-09-28T04:49:03.372Z,12.77
2018-09-28T04:50:03.383Z,12.74
2018-09-28T04:51:56.297Z,12.83
2018-09-28T04:52:56.308Z,12.87
2018-09-28T04:54:49.218Z,12.71
2018-09-28T04:55:49.228Z,12.77
2018-09-28T04:57:42.137Z,12.65
2018-09-28T04:58:42.147Z,12.65
2018-09-28T05:00:35.055Z,12.68
2018-09-28T05:01:35.069Z,12.67
2018-09-28T05:03:27.976Z,12.68
2018-09-28T05:04:27.986Z,12.67
2018-09-28T05:06:20.886Z,12.60
2018-09-28T05:07:20.992Z,12.54
2018-09-28T05:09:13.981Z,12.59
2018-09-28T05:10:13.996Z,12.59
2018-09-28T05:12:06.900Z,12.50
2018-09-28T05:13:07.018Z,12.54
2018-09-28T05:14:59.839Z,12.53
2018-09-28T05:15:59.849Z,12.59
2018-09-28T05:17:52.758Z,12.60
2018-09-28T05:18:52.767Z,12.62
2018-09-28T05:20:45.663Z,12.65
2018-09-28T05:21:45.683Z,12.62
2018-09-28T05:23:38.598Z,12.71
2018-09-28T05:24:38.609Z,12.77
2018-09-28T05:26:31.505Z,12.83
2018-09-28T05:27:31.524Z,12.92
2018-09-28T05:29:24.441Z,12.96
2018-09-28T05:30:24.455Z,12.87
2018-09-28T05:32:17.494Z,13.01
2018-09-28T05:33:17.370Z,12.90
2018-09-28T05:35:10.282Z,13.03
2018-09-28T05:36:10.290Z,13.01
2018-09-28T05:38:03.198Z,12.95
2018-09-28T05:39:03.207Z,12.89
2018-09-28T05:40:56.120Z,12.82
2018-09-28T05:41:56.130Z,12.83
2018-09-28T05:43:49.101Z,12.89
2018-09-28T05:44:49.048Z,12.85
2018-09-28T05:46:41.953Z,12.89
2018-09-28T05:47:41.969Z,12.87
2018-09-28T05:49:34.881Z,12.90
2018-09-28T05:50:34.887Z,12.89
2018-09-28T05:52:27.794Z,12.86
2018-09-28T05:53:27.809Z,12.90
2018-09-28T05:55:20.718Z,12.97
2018-09-28T05:56:20.728Z,12.96
2018-09-28T05:58:13.629Z,13.05
2018-09-28T05:59:13.649Z,13.05
2018-09-28T06:01:06.558Z,12.97
2018-09-28T06:02:06.565Z,13.03
2018-09-28T06:03:59.473Z,13.20
2018-09-28T06:04:59.491Z,13.22
2018-09-28T06:06:52.404Z,13.19
2018-09-28T06:07:52.419Z,13.32
2018-09-28T06:09:45.322Z,13.32
2018-09-28T06:10:45.334Z,13.33
2018-09-28T06:12:38.243Z,13.39
2018-09-28T06:13:38.254Z,13.45
2018-09-28T06:15:31.162Z,13.62
2018-09-28T06:16:31.177Z,13.59
2018-09-28T06:18:24.121Z,13.51
2018-09-28T06:19:24.098Z,13.64
2018-09-28T06:21:17.011Z,13.64
2018-09-28T06:22:17.021Z,13.51
2018-09-28T06:24:09.991Z,13.55
2018-09-28T06:25:09.940Z,13.52
2018-09-28T06:27:02.874Z,13.44
2018-09-28T06:28:02.864Z,13.29
2018-09-28T06:29:55.791Z,13.29
2018-09-28T06:30:55.793Z,13.26
2018-09-28T06:32:48.703Z,13.20
2018-09-28T06:33:48.714Z,13.28
2018-09-28T06:35:42.338Z,13.26
2018-09-28T06:36:41.637Z,13.33
2018-09-28T06:38:34.565Z,13.29
2018-09-28T06:39:34.557Z,13.32
2018-09-28T06:41:27.465Z,13.38
2018-09-28T06:42:27.685Z,13.36
2018-09-28T06:44:20.381Z,13.32
2018-09-28T06:45:20.401Z,13.33
2018-09-28T06:47:13.311Z,13.30
2018-09-28T06:48:13.335Z,13.29
2018-09-28T06:50:06.226Z,13.26
2018-09-28T06:51:06.242Z,13.29
2018-09-28T06:52:59.155Z,13.17
2018-09-28T06:53:59.270Z,13.38
2018-09-28T06:55:52.062Z,13.30
2018-09-28T06:56:52.075Z,13.28
2018-09-28T06:58:44.990Z,13.28
2018-09-28T06:59:45.054Z,13.29
2018-09-28T07:01:37.931Z,13.33
2018-09-28T07:02:37.954Z,13.33
2018-09-28T07:04:30.830Z,13.45
2018-09-28T07:05:30.868Z,13.54
2018-09-28T07:07:23.759Z,13.57
2018-09-28T07:08:23.773Z,13.60
2018-09-28T07:10:16.673Z,13.62
2018-09-28T07:11:16.691Z,13.77
2018-09-28T07:13:09.601Z,13.78
2018-09-28T07:14:09.610Z,13.66
2018-09-28T07:16:02.514Z,13.77
2018-09-28T07:17:02.533Z,13.71
2018-09-28T07:18:55.460Z,13.73
2018-09-28T07:19:55.474Z,13.81
2018-09-28T07:21:48.401Z,13.85
2018-09-28T07:22:48.397Z,13.91
2018-09-28T07:24:41.383Z,13.92
2018-09-28T07:25:41.318Z,13.96
2018-09-28T07:27:34.221Z,13.92
2018-09-28T07:28:34.238Z,13.92
2018-09-28T07:30:27.149Z,14.00
2018-09-28T07:31:27.161Z,14.09
2018-09-28T07:33:20.070Z,14.15
2018-09-28T07:34:20.081Z,14.04
2018-09-28T07:36:13.041Z,14.22
2018-09-28T07:37:13.167Z,14.25
2018-09-28T07:39:05.920Z,14.32
2018-09-28T07:40:05.922Z,14.43
2018-09-28T07:41:58.910Z,14.46
2018-09-28T07:42:58.845Z,14.39
2018-09-28T07:44:51.756Z,14.47
2018-09-28T07:45:51.767Z,14.45
2018-09-28T07:47:44.683Z,14.52
2018-09-28T07:48:44.696Z,14.61
2018-09-28T07:50:37.613Z,14.58
2018-09-28T07:51:37.620Z,14.50
2018-09-28T07:53:30.549Z,14.51
2018-09-28T07:54:30.546Z,14.50
2018-09-28T07:56:23.455Z,14.51
2018-09-28T07:57:23.476Z,14.58
2018-09-28T07:59:16.391Z,14.51
2018-09-28T08:00:16.403Z,14.52
2018-09-28T08:02:09.310Z,14.52
2018-09-28T08:03:09.329Z,14.65
2018-09-28T08:05:02.255Z,14.61
2018-09-28T08:06:02.251Z,14.55
2018-09-28T08:07:55.157Z,14.62
2018-09-28T08:08:55.175Z,14.60
2018-09-28T08:10:48.085Z,14.61
2018-09-28T08:11:48.099Z,14.68
2018-09-28T08:13:41.002Z,14.78
2018-09-28T08:14:41.021Z,14.95
2018-09-28T08:16:35.170Z,15.02
2018-09-28T08:17:35.168Z,15.09
2018-09-28T08:19:28.088Z,15.28
2018-09-28T08:20:28.089Z,15.23
2018-09-28T08:22:20.997Z,15.19
2018-09-28T08:23:21.038Z,15.32
2018-09-28T08:25:13.930Z,15.35
2018-09-28T08:26:13.943Z,15.39
2018-09-28T08:28:06.849Z,15.36
2018-09-28T08:29:06.865Z,15.41
2018-09-28T08:30:59.781Z,15.41
2018-09-28T08:31:59.808Z,15.38
2018-09-28T08:33:52.696Z,15.35
2018-09-28T08:34:52.719Z,15.41
2018-09-28T08:36:45.703Z,15.20
2018-09-28T08:37:45.643Z,15.19
2018-09-28T08:39:38.550Z,15.36
2018-09-28T08:40:38.568Z,15.43
2018-09-28T08:42:31.487Z,15.46
2018-09-28T08:43:31.511Z,15.47
2018-09-28T08:45:24.411Z,15.35
2018-09-28T08:46:24.420Z,15.29
2018-09-28T08:48:17.327Z,15.25
2018-09-28T08:49:17.357Z,15.20
2018-09-28T08:51:11.259Z,15.31
2018-09-28T08:52:11.274Z,15.31
2018-09-28T08:54:04.194Z,15.35
2018-09-28T08:55:04.219Z,15.41
2018-09-28T08:56:57.132Z,15.36
2018-09-28T08:57:57.140Z,15.44
2018-09-28T08:59:50.072Z,15.56
2018-09-28T09:00:50.070Z,15.51
2018-09-28T09:02:42.981Z,15.57
2018-09-28T09:03:42.997Z,15.62
2018-09-28T09:05:35.901Z,15.76
2018-09-28T09:06:35.921Z,15.75
2018-09-28T09:08:28.840Z,15.89
2018-09-28T09:09:28.848Z,15.92
2018-09-28T09:11:21.765Z,16.11
2018-09-28T09:12:21.776Z,16.01
2018-09-28T09:14:14.685Z,16.00
2018-09-28T09:15:14.702Z,15.94
2018-09-28T09:17:07.621Z,15.96
2018-09-28T09:18:07.769Z,15.90
2018-09-28T09:20:00.535Z,15.83
2018-09-28T09:21:00.558Z,15.75
2018-09-28T09:22:53.479Z,15.71
2018-09-28T09:23:53.537Z,15.82
2018-09-28T09:25:46.398Z,15.65
2018-09-28T09:26:46.419Z,15.78
2018-09-28T09:28:39.334Z,15.78
2018-09-28T09:29:39.344Z,15.82
2018-09-28T09:31:32.253Z,15.83
2018-09-28T09:32:32.275Z,15.71
2018-09-28T09:34:25.193Z,15.90
2018-09-28T09:35:25.203Z,16.01
2018-09-28T09:37:18.117Z,15.84
2018-09-28T09:38:18.131Z,15.93
2018-09-28T09:40:11.037Z,15.87
2018-09-28T09:41:11.061Z,15.86
2018-09-28T09:43:03.980Z,15.87
2018-09-28T09:44:03.989Z,15.87
2018-09-28T09:45:56.897Z,15.93
2018-09-28T09:46:56.921Z,15.90
2018-09-28T09:48:49.843Z,16.01
2018-09-28T09:49:49.840Z,16.11
2018-09-28T09:51:42.755Z,16.11
2018-09-28T09:52:42.771Z,16.05
2018-09-28T09:54:36.678Z,16.09
2018-09-28T09:55:36.693Z,16.07
2018-09-28T09:57:29.599Z,16.12
2018-09-28T09:58:29.620Z,16.08
2018-09-28T10:00:22.533Z,16.08
2018-09-28T10:01:22.547Z,16.11
2018-09-28T10:03:15.466Z,16.11
2018-09-28T10:04:15.479Z,16.17
2018-09-28T10:06:08.411Z,16.20
2018-09-28T10:07:08.406Z,16.15
2018-09-28T10:09:01.322Z,16.28
2018-09-28T10:10:01.333Z,16.30
2018-09-28T10:11:54.241Z,16.09
2018-09-28T10:12:54.323Z,16.08
2018-09-28T10:14:47.196Z,16.09
2018-09-28T10:15:47.193Z,16.12
2018-09-28T10:17:40.102Z,16.17
2018-09-28T10:18:40.123Z,16.41
2018-09-28T10:20:33.034Z,16.46
2018-09-28T10:21:33.052Z,16.57
2018-09-28T10:23:25.970Z,16.66
2018-09-28T10:24:25.977Z,16.93
2018-09-28T10:26:27.054Z,16.98
2018-09-28T10:27:26.072Z,17.12
2018-09-28T10:29:19.952Z,17.31
2018-09-28T10:30:11.836Z,17.38
2018-09-28T10:32:04.745Z,17.25
2018-09-28T10:33:04.767Z,17.28
2018-09-28T10:34:57.685Z,17.28
2018-09-28T10:35:57.699Z,17.28
2018-09-28T10:37:50.610Z,17.37
2018-09-28T10:38:50.632Z,17.33
2018-09-28T10:40:43.618Z,17.36
2018-09-28T10:41:43.563Z,17.41
2018-09-28T10:43:36.465Z,17.28
2018-09-28T10:44:36.493Z,17.19
2018-09-28T10:46:29.473Z,17.31
2018-09-28T10:47:29.424Z,17.36
2018-09-28T10:49:22.343Z,17.40
2018-09-28T10:50:22.357Z,17.51
2018-09-28T10:52:15.484Z,17.51
2018-09-28T10:53:15.290Z,17.62
2018-09-28T10:55:08.203Z,17.71
2018-09-28T10:56:08.216Z,17.78
2018-09-28T10:58:01.155Z,17.78
2018-09-28T10:59:01.146Z,17.81
2018-09-28T11:00:54.078Z,17.82
2018-09-28T11:01:54.077Z,17.89
2018-09-28T11:03:47.085Z,17.92
2018-09-28T11:04:47.122Z,17.97
2018-09-28T11:06:39.931Z,18.15
2018-09-28T11:07:39.946Z,18.15
2018-09-28T11:09:32.868Z,18.27
2018-09-28T11:10:32.925Z,18.26
2018-09-28T11:12:25.808Z,18.29
2018-09-28T11:13:25.824Z,18.41
2018-09-28T11:15:18.946Z,18.50
2018-09-28T11:16:18.956Z,18.62
2018-09-28T11:18:11.945Z,18.67
2018-09-28T11:19:11.891Z,18.81
2018-09-28T11:21:04.805Z,18.84
2018-09-28T11:22:04.821Z,18.95
2018-09-28T11:23:57.741Z,18.94
2018-09-28T11:24:57.755Z,18.85
2018-09-28T11:26:50.674Z,18.87
2018-09-28T11:27:50.811Z,18.84
2018-09-28T11:29:43.605Z,18.91
2018-09-28T11:30:43.630Z,18.99
2018-09-28T11:32:36.546Z,19.21
2018-09-28T11:33:36.603Z,19.23
2018-09-28T11:35:29.484Z,19.13
2018-09-28T11:36:29.506Z,19.13
2018-09-28T11:38:22.440Z,18.94
2018-09-28T11:39:22.442Z,18.87
2018-09-28T11:41:15.369Z,18.85
2018-09-28T11:42:15.370Z,18.72
2018-09-28T11:44:08.282Z,18.65
2018-09-28T11:45:08.360Z,18.67
2018-09-28T11:47:01.233Z,18.62
2018-09-28T11:48:01.251Z,18.66
2018-09-28T11:49:54.163Z,18.66
2018-09-28T11:50:54.181Z,18.69
2018-09-28T11:52:47.112Z,18.66
2018-09-28T11:53:47.122Z,18.58
2018-09-28T11:55:40.040Z,18.58
2018-09-28T11:56:40.080Z,18.70
2018-09-28T11:58:32.978Z,18.70
2018-09-28T11:59:32.992Z,18.65
2018-09-28T12:01:25.904Z,18.42
2018-09-28T12:02:25.925Z,18.42
2018-09-28T12:04:18.875Z,18.33
2018-09-28T12:05:18.882Z,18.18
2018-09-28T12:07:12.062Z,18.08
2018-09-28T12:08:12.007Z,18.08
2018-09-28T12:10:04.932Z,17.81
2018-09-28T12:11:05.006Z,17.77
2018-09-28T12:12:57.858Z,17.71
2018-09-28T12:13:57.871Z,17.66
2018-09-28T12:15:50.898Z,17.70
2018-09-28T12:16:50.804Z,17.77
2018-09-28T12:18:43.789Z,17.92
2018-09-28T12:19:43.736Z,17.96
2018-09-28T12:21:36.679Z,18.08
2018-09-28T12:22:36.665Z,18.17
2018-09-28T12:24:29.583Z,18.32
2018-09-28T12:25:29.593Z,18.29
2018-09-28T12:27:22.609Z,18.39
2018-09-28T12:28:22.525Z,18.51
2018-09-28T12:30:15.486Z,18.52
2018-09-28T12:31:15.456Z,18.47
2018-09-28T12:33:08.406Z,18.50
2018-09-28T12:34:08.386Z,18.44
2018-09-28T12:36:01.316Z,18.55
2018-09-28T12:37:01.326Z,18.39
2018-09-28T12:38:54.259Z,18.45
2018-09-28T12:39:54.320Z,18.57
2018-09-28T12:41:47.165Z,18.67
2018-09-28T12:42:47.243Z,18.62
2018-09-28T12:44:40.159Z,18.72
2018-09-28T12:45:40.177Z,18.69
2018-09-28T12:47:33.028Z,18.72
2018-09-28T12:48:33.090Z,18.65
2018-09-28T12:50:26.139Z,18.69
2018-09-28T12:51:25.983Z,18.72
2018-09-28T12:53:18.896Z,18.42
2018-09-28T12:54:18.937Z,18.37
2018-09-28T12:56:11.859Z,18.39
2018-09-28T12:57:11.850Z,18.29
2018-09-28T12:59:04.761Z,18.10
2018-09-28T13:00:04.780Z,17.93
2018-09-28T13:01:57.722Z,17.97
2018-09-28T13:02:57.721Z,17.97
2018-09-28T13:04:50.873Z,18.00
2018-09-28T13:05:50.890Z,17.93
2018-09-28T13:07:43.810Z,17.92
2018-09-28T13:08:43.870Z,17.90
2018-09-28T13:10:36.744Z,17.77
2018-09-28T13:11:36.751Z,17.77
2018-09-28T13:13:29.664Z,17.82
2018-09-28T13:14:29.806Z,17.90
2018-09-28T13:16:22.597Z,18.00
2018-09-28T13:17:22.616Z,17.95
2018-09-28T13:19:15.521Z,18.08
2018-09-28T13:20:15.558Z,18.18
2018-09-28T13:22:08.453Z,18.26
2018-09-28T13:23:08.472Z,18.21
2018-09-28T13:25:01.380Z,18.23
2018-09-28T13:26:01.401Z,18.27
2018-09-28T13:27:54.390Z,18.42
2018-09-28T13:28:54.335Z,18.32
2018-09-28T13:30:47.439Z,18.51
2018-09-28T13:31:47.266Z,18.55
2018-09-28T13:33:40.174Z,18.62
2018-09-28T13:34:40.196Z,18.58
2018-09-28T13:36:33.175Z,18.62
2018-09-28T13:37:33.134Z,18.65
2018-09-28T13:39:26.047Z,18.70
2018-09-28T13:40:26.100Z,18.63
2018-09-28T13:42:19.015Z,18.52
2018-09-28T13:43:19.002Z,18.47
2018-09-28T13:45:11.987Z,18.33
2018-09-28T13:46:11.968Z,18.26
2018-09-28T13:48:04.918Z,18.08
2018-09-28T13:49:04.871Z,18.00
2018-09-28T13:50:57.781Z,17.92
2018-09-28T13:51:57.833Z,17.95
2018-09-28T13:53:50.809Z,17.95
2018-09-28T13:54:50.792Z,18.11
2018-09-28T13:56:43.731Z,18.03
2018-09-28T13:57:43.676Z,18.03
2018-09-28T13:59:36.593Z,18.03
2018-09-28T14:00:36.614Z,18.07
2018-09-28T14:02:29.582Z,17.93
2018-09-28T14:03:29.537Z,17.97
2018-09-28T14:05:22.446Z,17.97
2018-09-28T14:06:22.512Z,18.00
2018-09-28T14:08:15.427Z,18.05
2018-09-28T14:09:15.414Z,18.12
2018-09-28T14:11:08.308Z,18.12
2018-09-28T14:12:08.366Z,18.12
2018-09-28T14:14:01.247Z,18.05
2018-09-28T14:15:01.257Z,18.29
2018-09-28T14:16:54.167Z,18.36
2018-09-28T14:17:54.193Z,18.48
2018-09-28T14:19:47.103Z,18.57
2018-09-28T14:20:47.211Z,18.51
2018-09-28T14:22:40.073Z,18.70
2018-09-28T14:23:40.051Z,18.75
2018-09-28T14:25:33.970Z,18.78
2018-09-28T14:26:34.021Z,18.75
2018-09-28T14:28:26.988Z,18.67
2018-09-28T14:29:26.912Z,18.69
2018-09-28T14:31:19.819Z,18.58
2018-09-28T14:32:19.877Z,18.62
2018-09-28T14:34:12.818Z,18.67
2018-09-28T14:35:12.779Z,18.58
2018-09-28T14:37:05.694Z,18.65
2018-09-28T14:38:05.719Z,18.73
2018-09-28T14:39:58.659Z,18.81
2018-09-28T14:40:58.671Z,18.87
2018-09-28T14:42:51.589Z,18.84
2018-09-28T14:43:51.611Z,18.80
2018-09-28T14:45:44.523Z,18.87
2018-09-28T14:46:44.547Z,18.80
2018-09-28T14:48:37.522Z,18.84
2018-09-28T14:49:37.469Z,18.78
2018-09-28T14:51:31.382Z,18.52
2018-09-28T14:52:31.440Z,18.45
2018-09-28T14:54:24.348Z,18.07
2018-09-28T14:55:24.327Z,17.87
2018-09-28T14:57:17.255Z,17.79
2018-09-28T14:58:17.274Z,17.71
2018-09-28T15:00:11.256Z,17.63
2018-09-28T15:01:11.276Z,17.40
2018-09-28T15:03:04.096Z,17.46
2018-09-28T15:04:04.118Z,17.38
2018-09-28T15:05:57.071Z,17.25
2018-09-28T15:06:57.146Z,17.26
2018-09-28T15:08:50.031Z,17.31
2018-09-28T15:09:49.981Z,17.30
2018-09-28T15:11:42.897Z,17.07
2018-09-28T15:12:42.977Z,17.08
2018-09-28T15:14:37.004Z,16.93
2018-09-28T15:15:36.998Z,16.85
2018-09-28T15:17:29.925Z,16.79
2018-09-28T15:18:29.954Z,16.78
2018-09-28T15:20:22.863Z,16.75
2018-09-28T15:21:22.887Z,16.81
2018-09-28T15:23:15.804Z,16.75
2018-09-28T15:24:15.820Z,16.67
2018-09-28T15:26:08.750Z,16.70
2018-09-28T15:27:08.740Z,16.64
2018-09-28T15:29:01.646Z,16.73
2018-09-28T15:30:01.793Z,16.68
2018-09-28T15:31:54.611Z,16.71
2018-09-28T15:32:54.620Z,16.63
2018-09-28T15:34:47.549Z,16.67
2018-09-28T15:35:47.549Z,16.68
2018-09-28T15:37:40.506Z,16.79
2018-09-28T15:38:40.482Z,16.64
2018-09-28T15:40:33.396Z,16.64
2018-09-28T15:41:33.429Z,16.75
2018-09-28T15:43:26.323Z,16.61
2018-09-28T15:44:26.342Z,16.67
2018-09-28T15:46:19.264Z,16.79
2018-09-28T15:47:19.282Z,16.68
2018-09-28T15:49:12.230Z,16.73
2018-09-28T15:50:12.211Z,16.67
2018-09-28T15:52:05.116Z,16.61
2018-09-28T15:53:05.137Z,16.48
2018-09-28T15:54:58.054Z,16.45
2018-09-28T15:55:58.097Z,16.53
2018-09-28T15:57:50.974Z,16.53
2018-09-28T15:58:50.996Z,16.49
2018-09-28T16:00:43.921Z,16.43
2018-09-28T16:01:43.922Z,16.45
2018-09-28T16:03:36.843Z,16.45
2018-09-28T16:04:36.846Z,16.42
2018-09-28T16:06:29.766Z,16.38
2018-09-28T16:07:29.778Z,16.28
2018-09-28T16:09:22.715Z,16.14
2018-09-28T16:10:22.705Z,16.15
2018-09-28T16:12:15.805Z,16.15
2018-09-28T16:13:15.839Z,16.12
2018-09-28T16:15:08.798Z,16.08
2018-09-28T16:16:08.741Z,16.02
2018-09-28T16:18:01.655Z,16.11
2018-09-28T16:19:01.675Z,16.09
2018-09-28T16:20:54.630Z,15.94
2018-09-28T16:21:54.601Z,15.96
2018-09-28T16:23:47.540Z,15.96
2018-09-28T16:24:47.640Z,15.93
2018-09-28T16:26:40.448Z,15.90
2018-09-28T16:27:40.468Z,15.86
2018-09-28T16:29:33.407Z,15.87
2018-09-28T16:30:33.390Z,15.90
2018-09-28T16:32:26.300Z,15.75
2018-09-28T16:33:26.316Z,15.80
2018-09-28T16:35:19.229Z,15.83
2018-09-28T16:36:19.245Z,15.74
2018-09-28T16:38:12.151Z,15.69
2018-09-28T16:39:12.165Z,15.69
2018-09-28T16:41:05.098Z,15.57
2018-09-28T16:42:05.091Z,15.59
2018-09-28T16:43:57.998Z,15.53
2018-09-28T16:44:58.029Z,15.51
2018-09-28T16:46:51.006Z,15.50
2018-09-28T16:47:51.010Z,15.49
2018-09-28T16:49:43.871Z,15.41
2018-09-28T16:50:43.863Z,15.53
2018-09-28T16:52:37.052Z,15.39
2018-09-28T16:53:37.065Z,15.39
2018-09-28T16:55:29.995Z,15.35
2018-09-28T16:56:30.006Z,15.31
2018-09-28T16:58:22.917Z,15.25
2018-09-28T16:59:22.933Z,15.21
2018-09-28T17:01:15.865Z,15.21
2018-09-28T17:02:15.942Z,15.16
2018-09-28T17:04:08.831Z,15.10
2018-09-28T17:05:08.821Z,15.07
2018-09-28T17:07:01.811Z,14.99
2018-09-28T17:08:01.841Z,15.01
2018-09-28T17:09:55.543Z,14.98
2018-09-28T17:10:55.599Z,14.96
2018-09-28T17:12:48.720Z,14.96
2018-09-28T17:13:48.522Z,14.95
2018-09-28T17:15:42.483Z,14.88
2018-09-28T17:16:42.430Z,14.89
2018-09-28T17:18:35.345Z,14.92
2018-09-28T17:19:35.385Z,14.83
2018-09-28T17:21:28.296Z,14.81
2018-09-28T17:22:28.356Z,14.88
2018-09-28T17:24:21.197Z,14.92
2018-09-28T17:25:21.215Z,14.88
2018-09-28T17:27:14.131Z,14.86
2018-09-28T17:28:14.150Z,14.83
2018-09-28T17:30:07.051Z,14.70
2018-09-28T17:31:07.060Z,14.80
2018-09-28T17:32:59.973Z,14.72
2018-09-28T17:33:59.978Z,14.69
2018-09-28T17:35:52.907Z,14.65
2018-09-28T17:36:52.901Z,14.73
2018-09-28T17:38:45.811Z,14.61
2018-09-28T17:39:45.825Z,14.51
2018-09-28T17:41:38.735Z,14.54
2018-09-28T17:42:38.759Z,14.52
2018-09-28T17:44:31.649Z,14.36
2018-09-28T17:45:31.668Z,14.36
2018-09-28T17:47:24.583Z,14.37
2018-09-28T17:48:24.657Z,14.27
2018-09-28T17:50:18.555Z,14.27
2018-09-28T17:51:18.515Z,14.12
2018-09-28T17:53:11.470Z,14.14
2018-09-28T17:54:11.434Z,14.10
2018-09-28T17:56:04.346Z,14.04
2018-09-28T17:57:04.365Z,13.99
2018-09-28T17:58:57.325Z,14.06
2018-09-28T17:59:57.318Z,13.96
2018-09-28T18:01:50.227Z,13.95
2018-09-28T18:02:50.236Z,13.91
2018-09-28T18:04:43.168Z,13.87
2018-09-28T18:05:43.277Z,13.85
2018-09-28T18:07:36.063Z,13.89
2018-09-28T18:08:36.080Z,13.82
2018-09-28T18:10:28.980Z,13.77
2018-09-28T18:11:28.999Z,13.71
2018-09-28T18:13:21.923Z,13.77
2018-09-28T18:14:21.971Z,13.75
2018-09-28T18:16:14.833Z,13.77
2018-09-28T18:17:14.859Z,13.71
2018-09-28T18:19:07.794Z,13.70
2018-09-28T18:20:07.767Z,13.66
2018-09-28T18:22:00.682Z,13.66
2018-09-28T18:23:00.681Z,13.52
2018-09-28T18:24:53.589Z,13.57
2018-09-28T18:25:53.606Z,13.57
2018-09-28T18:27:46.533Z,13.39
2018-09-28T18:28:46.529Z,13.42
2018-09-28T18:30:39.927Z,13.30
2018-09-28T18:31:39.942Z,13.38
2018-09-28T18:33:33.870Z,13.32
2018-09-28T18:34:33.881Z,13.30
2018-09-28T18:36:26.759Z,13.26